Date,TemperatureHighF,TemperatureAvgF,TemperatureLowF,DewpointHighF,DewpointAvgF,DewpointLowF,HumidityHigh,HumidityAvg,HumidityLow,PressureMaxIn,PressureMinIn,WindSpeedMaxMPH,WindSpeedAvgMPH,GustSpeedMaxMPH,PrecipitationSumIn
2012-1-1,52,40,30,47,35,21,92,80,63,29.88,29.52,16,3,22,0.14
2012-1-2,30,25,20,23,20,16,87,81,68,29.96,29.81,10,4,15,0.00
2012-1-3,22,18,16,16,12,8,86,75,66,30.17,29.96,6,1,11,0.00
2012-1-4,32,25,16,24,17,10,77,70,63,30.09,29.77,7,1,11,0.00
2012-1-5,43,34,24,30,25,21,89,71,52,29.93,29.71,4,0,7,0.04
2012-1-6,57,46,38,37,32,28,70,58,43,29.73,29.61,5,2,8,0.00
2012-1-7,49,44,37,41,34,28,85,67,52,29.98,29.60,6,1,7,0.00
2012-1-8,40,34,28,29,26,23,87,72,53,30.17,29.98,1,1,2,0.00
2012-1-9,44,36,30,29,25,22,73,64,51,30.10,29.84,2,1,5,0.08
2012-1-10,47,38,30,33,27,23,76,67,57,29.92,29.74,3,1,5,0.18
2012-1-11,46,40,34,44,35,27,94,84,68,29.75,29.23,2,1,7,1.91
2012-1-12,46,39,19,45,38,17,95,94,90,29.41,29.18,7,2,12,0.77
2012-1-13,19,17,14,17,13,10,90,85,80,29.88,29.41,10,4,18,0.00
2012-1-14,23,19,16,17,15,12,87,83,74,30.02,29.88,6,2,8,0.00
2012-1-15,27,19,10,19,14,7,90,81,69,30.32,30.01,2,1,2,0.00
2012-1-16,46,35,22,41,28,16,84,75,63,30.18,29.75,6,2,11,0.08
2012-1-17,54,46,31,51,42,27,94,85,74,29.86,29.41,7,3,13,0.85
2012-1-18,31,27,22,28,19,15,88,74,65,30.08,29.86,5,1,11,0.00
2012-1-19,33,26,18,27,21,12,89,80,74,29.92,29.69,6,2,11,0.00
2012-1-20,24,16,6,20,10,2,87,77,67,30.07,29.71,2,1,3,0.00
2012-1-21,27,25,22,24,22,20,92,89,86,30.06,29.68,3,1,7,0.00
2012-1-22,25,25,24,22,22,21,89,88,87,30.04,30.03,2,1,2,0.00
2012-1-31,60,54,45,41,37,33,83,54,41,29.88,29.84,7,4,11,0.18
2012-2-1,58,51,43,50,44,38,87,77,65,29.90,29.81,8,2,11,0.04
2012-2-2,45,39,34,39,34,28,92,82,66,30.21,29.83,2,1,2,0.00
2012-2-3,51,40,31,36,31,27,87,71,49,30.31,30.14,2,1,2,0.00
2012-2-4,40,37,36,33,32,29,86,81,69,30.14,29.91,5,2,12,3.04
2012-2-5,37,37,37,33,33,33,86,86,86,30.07,29.88,2,2,2,0.00
2012-2-6,45,38,33,33,30,25,86,73,52,30.06,29.93,2,2,4,0.00
2012-2-7,34,32,29,28,26,23,86,79,72,30.07,29.96,2,1,2,0.00
2012-2-8,32,30,23,29,26,19,92,87,83,30.09,30.02,2,1,2,0.08
2012-2-9,34,28,20,27,22,17,90,81,69,30.16,30.00,2,1,2,0.02
2012-2-10,32,29,27,27,24,22,91,82,70,30.00,29.70,2,1,2,0.02
2012-2-11,30,19,13,28,13,8,93,78,68,30.08,29.63,2,0,5,0.00
2012-2-12,17,17,17,8,8,8,68,68,68,30.11,30.03,0,0,0,0.00
2012-2-13,36,26,17,22,15,8,74,64,53,30.08,29.83,3,1,5,0.02
2012-2-14,34,33,30,32,28,21,93,83,65,29.90,29.68,2,1,3,0.16
2012-2-15,48,38,32,38,33,29,93,82,68,30.09,29.87,2,1,4,0.02
2012-2-16,48,44,38,46,40,34,94,89,76,29.96,29.77,4,1,9,0.28
2012-2-17,45,38,31,35,30,25,93,75,52,30.01,29.91,5,1,12,2.38
2012-2-18,37,37,37,26,26,26,65,65,65,29.95,29.84,1,1,1,0.00
2012-2-19,37,37,37,26,26,26,65,65,65,29.97,29.79,1,1,1,0.00
2012-2-20,37,37,37,26,26,26,65,65,65,30.19,29.96,1,1,1,0.00
2012-2-21,37,37,37,26,26,26,65,65,65,30.10,30.10,1,1,1,0.00
2012-2-22,37,37,37,26,26,26,65,65,65,30.10,30.10,1,1,1,0.00
2012-2-23,37,37,37,26,26,26,65,65,65,30.10,30.10,1,1,1,0.00
2012-2-24,50,40,33,43,30,26,90,69,50,30.10,29.19,15,7,30,0.00
2012-2-25,33,30,26,26,17,14,76,60,53,30.18,29.67,11,5,27,0.02
2012-2-26,46,35,20,23,19,14,77,53,38,30.39,30.17,3,2,9,0.02
2012-2-27,57,45,32,34,25,18,68,46,32,30.44,30.19,10,4,22,0.00
2012-2-28,51,38,25,27,23,19,79,58,36,30.45,30.06,2,1,7,0.00
2012-2-29,67,55,40,60,47,24,94,77,42,30.06,29.57,8,3,21,0.47
2012-3-1,54,42,37,40,32,29,76,67,54,29.88,29.59,9,4,21,0.02
2012-3-2,56,46,34,52,39,28,92,80,61,29.85,29.35,14,4,26,0.12
2012-3-3,44,37,32,37,28,23,82,72,59,29.82,29.57,12,5,25,0.04
2012-3-4,35,31,26,28,23,19,85,73,64,29.88,29.78,8,3,16,0.00
2012-3-5,34,30,25,26,21,17,89,71,53,30.42,29.85,4,2,14,0.00
2012-3-6,58,41,25,29,24,18,83,56,30,30.44,30.24,6,3,13,0.00
2012-3-7,67,57,45,44,35,24,53,44,36,30.34,30.14,8,5,20,0.00
2012-3-8,58,52,37,53,44,32,92,77,53,30.19,29.95,8,3,20,0.96
2012-3-9,42,36,31,32,26,19,88,67,47,30.44,30.19,4,1,17,0.02
2012-3-10,50,39,25,26,22,19,78,51,37,30.50,30.34,2,1,5,0.00
2012-3-11,67,52,39,38,28,-100,49,41,33,30.39,30.23,3,1,11,0.00
2012-3-12,60,55,48,55,45,31,91,72,40,30.23,30.00,5,2,11,0.39
2012-3-13,73,63,57,61,55,50,90,77,56,30.14,30.01,6,3,15,0.02
2012-3-14,78,64,51,58,51,45,88,64,38,30.21,30.09,3,1,59,0.00
2012-3-15,64,60,56,59,54,49,93,79,62,30.19,30.08,7,1,13,0.35
2012-3-16,71,62,55,61,56,52,93,81,63,30.18,30.10,5,1,8,0.02
2012-3-17,77,64,54,59,56,50,91,75,53,30.21,30.11,2,0,9,0.00
2012-3-18,65,62,59,60,57,54,88,83,74,30.21,30.06,2,1,7,0.02
2012-3-19,80,68,59,65,59,55,90,76,53,30.14,30.05,0,0,0,0.02
2012-3-20,85,72,63,61,55,-100,82,60,38,30.16,30.06,0,0,0,0.02
2012-3-21,86,74,62,62,54,51,70,52,34,30.19,30.06,0,0,0,0.63
2012-3-22,85,72,63,60,54,-100,73,54,39,30.16,30.05,0,-7,0,0.41
2012-3-23,79,67,61,61,58,53,92,73,52,30.06,29.85,0,0,0,5.83
2012-4-1,72,67,62,56,55,54,74,66,55,29.70,29.65,0,0,0,1.26
2012-4-2,65,52,40,53,40,35,86,65,40,29.98,29.70,0,0,0,0.02
2012-4-3,67,54,45,54,41,33,75,61,48,30.01,29.80,0,0,0,0.02
2012-4-4,65,55,47,50,44,32,88,68,41,29.87,29.77,0,0,0,0.00
2012-4-5,55,45,38,35,31,27,73,60,43,30.00,29.85,0,0,0,0.00
2012-4-6,58,44,32,32,29,25,85,59,32,30.21,30.00,0,0,0,0.00
2012-4-7,64,48,33,28,22,16,67,39,19,30.31,30.16,0,0,0,1.45
2012-4-8,63,55,47,45,28,16,57,37,24,30.16,30.06,0,0,0,1.45
2012-4-9,64,52,42,38,29,23,59,43,24,30.06,29.85,0,0,0,0.00
2012-4-10,50,44,36,27,24,21,60,47,37,30.03,29.88,0,0,0,5.48
2012-4-11,47,38,27,30,26,21,79,62,47,30.19,30.00,0,0,0,6.20
2012-4-12,60,46,32,35,29,25,78,54,31,30.26,30.11,0,0,0,5.73
2012-4-13,68,54,38,36,31,25,67,42,26,30.24,30.14,0,0,0,1.62
2012-4-14,57,53,49,53,42,28,93,70,39,30.16,29.97,0,0,0,7.12
2012-4-15,78,66,56,60,53,-100,89,68,47,30.01,29.90,0,0,0,4.57
2012-4-16,77,68,55,61,54,43,75,62,43,30.19,29.88,0,0,0,3.13
2012-4-17,64,55,46,44,42,39,78,62,46,30.34,30.19,0,0,0,9.01
2012-4-18,69,56,45,46,40,36,77,57,35,30.26,30.03,0,0,0,0.26
2012-4-19,76,61,47,54,47,42,92,63,38,30.10,29.93,0,0,0,8.98
2012-4-20,78,65,53,55,49,42,76,58,44,29.93,29.72,0,0,0,5.50
2012-4-21,62,46,40,54,43,36,93,89,74,29.96,29.74,0,0,0,4.14
2012-4-22,47,42,39,37,34,-100,88,77,66,29.95,29.80,0,0,0,8.49
2012-4-23,56,46,38,33,27,16,77,51,23,29.80,29.62,0,0,0,7.98
2012-4-24,62,48,34,27,24,21,61,40,24,29.74,29.61,0,0,0,8.63
2012-4-25,62,52,42,46,36,25,85,57,38,29.85,29.74,0,0,0,8.15
2012-4-26,57,54,50,56,53,46,95,93,85,29.96,29.65,0,0,0,4.69
2012-4-27,57,57,57,56,56,56,95,95,95,30.23,29.98,0,0,0,1.13
2012-4-28,57,57,57,56,56,56,95,95,95,30.19,30.03,0,0,0,0.00
2012-4-29,57,57,57,56,56,56,95,95,95,30.24,30.11,0,0,0,0.00
2012-4-30,57,57,57,56,56,56,95,95,95,30.14,29.88,0,0,0,0.00
2012-5-1,57,57,57,56,56,56,95,95,95,30.08,29.93,0,0,0,0.00
2012-5-2,57,57,57,56,56,56,95,95,95,30.03,29.93,0,0,0,0.00
2012-5-3,57,57,57,56,56,56,95,95,95,30.10,29.98,0,0,0,0.00
2012-5-4,57,57,57,56,56,56,95,95,95,30.03,29.88,0,0,0,0.00
2012-5-5,57,57,57,56,56,56,95,95,95,30.01,29.87,0,0,0,0.00
2012-5-6,57,56,57,56,55,-100,95,95,95,30.08,29.92,0,0,0,0.00
2012-5-7,57,57,57,56,56,56,95,95,95,29.95,29.75,0,0,0,0.00
2012-5-8,57,57,57,56,56,56,95,95,95,29.87,29.77,0,0,0,0.00
2012-5-9,57,57,57,56,56,56,95,95,95,29.87,29.75,0,0,0,0.00
2012-5-10,57,57,57,56,56,56,95,95,95,30.01,29.82,0,0,0,0.00
2012-5-11,57,57,57,56,56,56,95,95,95,30.21,30.03,0,0,0,0.00
2012-5-12,57,57,57,56,56,56,95,95,95,30.29,30.16,0,0,0,0.00
2012-5-13,57,57,57,56,55,-100,95,95,95,30.21,30.08,0,0,0,0.00
2012-5-14,57,57,57,56,56,56,95,95,95,30.08,29.98,0,0,0,0.00
2012-5-15,57,57,57,56,56,56,95,95,95,30.03,29.93,0,0,0,0.00
2012-5-16,57,57,57,56,56,56,95,95,95,30.06,29.90,0,0,0,0.00
2012-5-17,57,57,57,56,56,56,95,95,95,30.16,30.06,0,0,0,0.00
2012-5-18,57,57,57,56,56,56,95,95,95,30.13,30.03,0,0,0,0.00
2012-5-19,57,57,57,56,56,56,95,95,95,30.14,30.06,0,0,0,0.00
2012-5-20,57,57,57,56,55,-100,95,95,95,30.18,30.01,0,0,0,0.00
2012-5-21,57,57,57,56,56,56,95,95,95,30.03,29.85,0,0,0,0.00
2012-5-22,57,57,57,56,56,56,95,95,95,29.95,29.88,0,0,0,0.00
2012-5-23,57,57,57,56,56,56,95,95,95,29.96,29.85,0,0,0,0.00
2012-5-24,57,57,57,56,56,56,95,95,95,29.98,29.87,0,0,0,0.00
2012-5-25,90,73,57,69,63,56,95,72,49,30.08,29.93,0,0,0,5.38
2012-5-26,92,80,69,72,68,65,88,69,49,30.14,30.06,0,0,0,5.38
2012-5-27,94,82,70,73,68,65,90,66,44,30.11,30.00,0,0,0,0.00
2012-5-28,94,82,73,74,70,67,86,68,49,30.00,29.87,0,0,0,0.00
2012-5-29,84,77,70,70,65,59,81,68,48,29.88,29.79,0,0,0,0.00
2012-5-30,84,72,63,64,56,43,93,60,26,29.87,29.77,0,0,0,0.00
2012-5-31,83,68,53,55,50,44,80,54,37,29.93,29.70,0,0,0,0.00
2012-6-1,71,61,54,64,56,47,92,84,52,29.80,29.59,0,0,0,0.00
2012-6-2,72,60,49,53,47,44,90,66,41,29.88,29.80,0,0,0,0.00
2012-6-3,80,65,53,56,49,-100,84,60,38,29.88,29.77,0,0,0,0.00
2012-6-4,79,68,56,56,50,44,77,54,38,29.83,29.75,0,0,0,0.00
2012-6-5,64,58,51,54,50,32,88,76,65,29.93,29.83,0,0,0,0.00
2012-6-6,75,60,50,53,48,32,93,68,39,30.03,29.93,0,0,0,0.00
2012-6-7,82,68,53,53,48,44,76,52,30,30.09,30.00,0,0,0,0.00
2012-6-8,86,73,57,55,48,40,73,46,26,30.09,29.96,0,0,0,0.00
2012-6-9,89,75,62,56,52,47,62,45,28,30.06,29.97,0,0,0,0.00
2012-6-10,89,77,65,60,55,-100,67,50,34,30.08,30.00,0,0,0,0.64
2012-6-11,79,72,69,70,64,56,90,75,53,30.03,29.91,0,0,0,2.22
2012-6-12,86,75,67,73,64,46,96,72,36,30.00,29.87,0,0,0,0.26
2012-6-13,79,67,58,54,49,43,80,55,30,30.14,30.01,0,0,0,0.00
2012-6-14,83,68,52,55,49,41,79,54,34,30.16,30.08,0,0,0,1.37
2012-6-15,88,74,61,66,58,50,76,58,41,30.19,30.09,0,0,0,0.84
2012-6-16,91,76,66,67,61,56,73,61,45,30.21,30.03,0,0,0,0.00
2012-6-17,83,72,68,71,65,-100,90,81,64,30.05,29.90,0,0,0,0.10
2012-6-18,87,76,66,73,68,64,93,78,51,29.98,29.88,0,0,0,0.04
2012-6-19,92,81,69,69,66,63,81,63,43,30.13,29.98,0,0,0,0.00
2012-6-20,94,83,72,69,66,64,76,59,42,30.16,30.03,0,0,0,3.01
2012-6-21,94,83,72,70,66,48,82,60,21,30.05,29.88,0,0,0,1.37
2012-6-22,87,76,68,67,61,45,88,63,32,29.96,29.88,28,8,28,0.00
2012-6-23,88,76,63,61,57,54,79,55,33,30.06,29.93,28,28,28,0.00
2012-6-24,93,79,67,61,58,56,70,50,30,30.06,29.90,28,28,28,0.00
2012-6-25,80,72,59,62,54,44,76,54,35,30.00,29.83,28,28,28,1.18
2012-6-26,59,52,52,45,45,44,77,75,59,30.06,29.93,28,28,28,2.71
2012-6-27,74,54,52,54,46,45,77,75,46,30.06,29.92,28,28,28,2.59
2012-6-28,100,83,66,71,61,51,60,48,38,29.93,29.80,28,28,28,0.00
2012-6-29,101,82,68,75,68,63,89,65,39,29.98,29.79,28,28,28,0.04
2012-6-30,91,78,64,71,67,62,93,72,49,29.93,29.83,28,28,28,0.04
2012-7-1,96,78,66,74,68,62,90,73,42,30.05,29.88,28,28,28,0.02
2012-7-2,92,72,62,67,63,60,94,76,42,30.03,29.97,28,28,28,0.02
2012-7-3,96,79,71,74,68,63,83,71,47,30.00,29.90,28,28,28,0.00
2012-7-4,99,85,73,75,70,66,81,63,39,29.97,29.88,28,28,28,0.00
2012-7-5,96,83,71,75,70,64,84,66,44,30.01,29.91,28,28,28,0.10
2012-7-6,98,92,89,74,72,71,57,52,42,30.01,29.93,28,28,28,0.00
2012-7-7,103,94,77,76,71,67,85,50,35,30.00,29.91,28,28,28,0.00
2012-7-8,92,82,75,75,71,62,89,70,53,29.98,29.90,28,28,28,0.00
2012-7-9,89,77,67,64,58,52,80,54,29,30.03,29.97,28,28,28,0.00
2012-7-10,92,78,64,63,58,54,76,52,34,30.05,29.98,28,28,28,0.00
2012-7-11,91,78,66,62,57,51,62,50,34,30.11,30.03,28,16,28,0.00
2012-7-12,90,78,66,66,60,54,86,57,33,30.13,30.08,0,0,0,0.00
2012-7-13,79,71,66,65,60,54,87,70,51,30.16,30.11,0,0,0,0.00
2012-7-14,86,74,66,73,68,62,93,82,63,30.14,30.06,0,0,0,0.14
2012-7-15,86,77,70,73,70,68,93,79,61,30.14,30.01,0,0,0,0.14
2012-7-16,96,83,71,72,67,60,91,64,31,30.06,29.92,0,0,0,0.00
2012-7-17,97,85,74,74,71,66,87,65,44,29.96,29.85,0,0,0,0.00
2012-7-18,97,82,74,75,70,65,84,70,48,29.98,29.88,0,0,0,0.00
2012-7-19,84,74,69,73,70,65,94,85,65,29.98,29.87,0,0,0,0.45
2012-7-20,77,72,68,73,69,63,96,90,81,30.01,29.83,0,0,0,0.12
2012-7-21,83,73,65,66,64,62,92,75,52,30.09,30.00,0,0,0,0.02
2012-7-22,91,78,66,69,65,62,91,68,41,30.16,30.06,0,0,0,0.00
2012-7-23,92,80,72,76,70,65,80,71,48,30.11,29.93,114,96,114,0.00
2012-7-24,81,77,70,73,70,67,93,81,71,30.00,29.85,114,114,114,0.35
2012-7-25,92,77,64,74,65,55,92,67,46,30.00,29.80,114,114,114,0.02
2012-7-26,94,81,71,77,73,66,94,78,54,29.80,29.67,114,114,114,0.65
2012-7-27,90,78,70,75,70,61,96,77,50,29.88,29.78,114,114,114,0.06
2012-7-28,83,72,65,69,64,61,94,77,55,30.06,29.88,114,114,114,0.00
2012-7-29,88,74,63,67,63,60,93,70,43,30.10,30.00,114,114,114,0.00
2012-7-30,90,77,63,67,61,56,87,60,35,30.03,29.93,114,114,114,0.00
2012-7-31,91,79,66,66,62,57,80,57,39,29.95,29.85,114,114,114,0.00
2012-8-1,92,79,69,71,64,59,88,63,39,29.90,29.83,114,114,114,0.00
2012-8-2,91,81,66,65,60,59,77,53,35,29.93,29.85,114,114,114,0.00
2012-8-3,94,88,73,72,63,59,74,45,35,30.00,29.88,114,114,114,0.00
2012-8-4,93,79,69,76,71,64,91,76,55,30.03,29.95,114,114,114,0.12
2012-8-5,85,76,71,76,73,68,95,89,70,30.10,29.98,114,114,114,1.65
2012-8-6,88,76,61,68,61,57,94,66,37,30.16,30.01,114,114,114,0.04
2012-8-7,90,83,64,64,60,57,84,48,38,30.03,29.95,114,114,114,0.00
2012-8-8,95,79,68,71,64,59,76,63,37,29.98,29.91,114,114,114,1.31
2012-8-9,91,74,65,70,65,61,94,75,48,29.97,29.78,114,103,114,1.90
2012-8-10,79,69,60,69,62,53,96,81,58,29.83,29.70,0,0,0,0.51
2012-8-11,71,64,58,62,58,53,93,82,63,29.98,29.83,0,0,0,0.24
2012-8-12,82,68,57,64,57,-100,94,71,41,30.03,29.98,0,0,0,0.02
2012-8-13,84,73,65,64,60,55,81,66,45,30.03,29.92,0,0,0,0.00
2012-8-14,80,71,64,70,63,59,94,78,61,29.93,29.85,0,0,0,0.51
2012-8-15,83,71,63,65,62,59,94,76,46,29.98,29.91,0,0,0,0.08
2012-8-16,89,75,64,68,62,57,81,65,43,30.03,29.82,0,0,0,0.00
2012-8-17,82,72,64,66,61,55,91,71,46,29.95,29.85,0,0,0,0.02
2012-8-18,81,70,56,60,55,52,88,62,40,30.01,29.88,0,0,0,3.18
2012-8-19,80,80,80,54,54,54,41,41,41,29.93,29.82,0,0,0,1.64
2012-8-20,80,71,55,59,54,49,90,57,36,29.98,29.88,0,0,0,5.76
2012-8-21,82,68,57,61,56,52,84,65,43,30.10,29.98,0,0,0,2.46
2012-8-22,83,70,55,61,56,52,89,64,40,30.16,30.06,0,0,0,0.00
2012-8-23,88,74,59,63,56,52,84,58,34,30.16,30.06,0,0,0,0.00
2012-8-24,92,76,61,65,58,54,83,57,34,30.14,30.05,0,0,0,0.00
2012-8-25,89,77,65,67,61,57,82,60,38,30.14,30.08,0,0,0,0.00
2012-8-26,91,76,63,64,59,56,78,57,36,30.19,30.03,0,0,0,0.00
2012-8-27,87,76,70,70,65,58,92,70,54,30.06,29.95,0,0,0,0.02
2012-8-28,87,74,64,71,64,57,95,75,43,30.06,29.98,0,0,0,0.02
2012-8-29,82,69,59,63,56,52,85,65,41,30.10,30.01,0,0,0,7.04
2012-8-30,89,74,59,60,55,51,78,56,34,30.14,30.05,0,0,0,0.00
2012-8-31,93,80,67,72,65,51,82,61,45,30.16,30.06,0,0,0,0.00
2012-9-1,88,76,71,76,71,69,94,84,65,30.13,30.00,0,0,0,0.51
2012-9-2,80,74,70,75,71,68,96,90,81,30.03,29.88,0,0,0,0.04
2012-9-3,81,74,69,74,71,68,96,90,77,29.93,29.87,0,0,0,0.24
2012-9-4,83,75,71,75,71,69,96,89,72,29.91,29.82,0,0,0,0.27
2012-9-5,84,74,67,73,69,66,97,86,64,29.91,29.80,0,0,0,0.14
2012-9-6,89,76,66,69,67,64,94,75,49,29.95,29.85,0,0,0,0.02
2012-9-7,89,77,68,73,68,66,95,77,51,29.95,29.67,0,0,0,0.00
2012-9-8,76,66,59,67,58,49,94,76,46,29.88,29.59,0,0,0,0.65
2012-9-9,72,65,57,56,52,50,82,64,54,30.06,29.88,0,0,0,2.51
2012-9-10,73,62,51,52,49,46,91,66,41,30.22,30.06,0,0,0,0.00
2012-9-11,79,66,53,54,49,45,76,56,36,30.29,30.19,0,0,0,0.00
2012-9-12,85,71,58,59,54,47,69,56,41,30.31,30.19,0,0,0,0.00
2012-9-13,85,73,63,64,58,55,78,61,39,30.31,30.19,0,0,0,0.00
2012-9-14,81,66,53,63,58,49,87,75,50,30.29,30.18,0,0,0,0.00
2012-9-15,74,60,48,55,47,42,92,67,33,30.32,30.16,0,0,0,0.00
2012-9-16,77,62,52,52,47,43,79,59,37,30.18,30.05,0,0,0,0.00
2012-9-17,78,66,55,62,53,43,90,65,45,30.06,29.82,0,0,0,0.04
2012-9-18,66,63,53,64,57,44,95,83,60,29.98,29.62,0,0,0,0.53
2012-9-19,67,54,42,45,40,37,84,61,37,30.19,29.98,0,0,0,0.06
2012-9-20,78,62,49,50,44,37,66,55,33,30.11,29.93,0,0,0,0.00
2012-9-21,72,65,56,57,51,47,83,63,43,30.01,29.72,0,0,0,0.00
2012-9-22,70,58,47,58,43,33,86,60,40,30.11,29.72,0,0,0,0.04
2012-9-23,63,50,38,44,37,-100,87,65,40,30.22,30.11,0,0,0,5.93
2012-9-24,67,52,38,41,37,33,86,59,34,30.27,30.06,0,0,0,1.16
2012-9-25,63,56,50,56,46,37,91,69,57,30.10,29.98,0,0,0,0.00
2012-9-26,72,65,59,65,61,56,93,87,72,30.10,29.98,0,0,0,0.12
2012-9-27,67,63,55,65,61,54,96,94,88,30.14,30.06,0,0,0,7.43
2012-9-28,63,57,53,55,52,49,97,86,67,30.13,30.03,0,0,0,0.02
2012-9-29,55,52,51,52,48,47,89,86,82,30.08,29.93,0,0,0,0.00
2012-9-30,51,51,51,47,47,47,86,86,86,29.91,29.83,0,0,0,0.00
2012-10-1,62,55,47,54,49,44,95,82,66,29.91,29.74,0,0,0,0.20
2012-10-2,78,64,54,70,61,53,97,90,73,29.88,29.70,0,0,0,0.61
2012-10-3,71,64,59,61,57,53,96,80,59,30.13,29.88,0,0,0,0.33
2012-10-4,76,64,56,58,54,52,87,71,48,30.19,30.11,0,0,0,0.16
2012-10-5,76,65,53,62,56,49,87,74,55,30.14,29.92,0,0,0,3.37
2012-10-6,52,44,40,46,39,33,93,84,49,30.10,29.93,0,0,0,9.65
2012-10-7,49,46,43,39,37,36,80,71,64,30.19,30.08,0,0,0,9.10
2012-10-8,54,46,38,40,38,35,90,72,56,30.26,30.13,0,0,0,5.27
2012-10-9,58,46,36,44,38,33,92,76,51,30.16,30.00,0,0,0,2.89
2012-10-10,55,49,41,42,34,29,80,56,45,30.21,30.01,0,0,0,0.00
2012-10-11,59,45,34,35,31,27,78,59,38,30.27,30.13,0,0,0,0.69
2012-10-12,56,47,43,39,33,28,78,58,41,30.36,30.14,0,0,0,1.41
2012-10-13,70,55,38,54,41,28,75,61,48,30.36,30.03,0,0,0,0.45
2012-10-14,76,67,60,60,57,54,81,71,55,30.05,29.72,0,0,0,0.04
2012-10-15,66,53,44,59,47,38,87,80,71,29.92,29.72,0,0,0,1.31
2012-10-16,60,48,36,44,39,33,93,74,50,30.00,29.83,0,0,0,0.06
2012-10-17,74,61,50,52,46,39,69,59,45,29.87,29.65,0,0,0,0.02
2012-10-18,63,57,48,50,42,31,87,58,36,29.75,29.54,0,0,0,2.88
2012-10-19,60,50,45,44,42,38,90,76,46,29.72,29.57,0,0,0,0.24
2012-10-20,54,47,44,48,43,40,92,86,72,29.96,29.69,0,0,0,6.16
2012-10-21,60,49,39,47,42,37,94,79,58,30.14,29.96,0,0,0,0.02
2012-10-22,75,61,48,55,48,41,78,65,49,30.16,30.01,0,0,0,0.06
2012-10-23,79,68,61,53,50,47,67,54,36,30.08,30.00,0,0,0,0.31
2012-10-24,78,68,60,57,53,48,80,59,42,30.13,30.03,0,0,0,0.02
2012-10-25,78,68,57,55,50,46,69,55,42,30.08,29.96,0,0,0,0.02
2012-10-26,65,57,48,54,49,45,93,75,55,30.10,29.97,0,0,0,6.06
2012-10-27,48,46,45,46,44,42,95,91,83,30.08,29.98,0,0,0,1.37
2012-10-28,45,42,37,43,40,35,94,92,87,30.03,29.91,0,0,0,0.02
2012-10-29,38,36,35,37,34,32,95,94,92,29.93,29.53,0,0,0,0.02
2012-10-30,37,34,32,36,32,30,95,94,91,29.53,29.34,0,0,0,0.89
2012-10-31,40,38,36,38,36,34,95,94,93,29.74,29.51,0,0,0,4.10
2012-11-1,47,41,37,39,35,31,95,80,58,29.80,29.72,0,0,0,1.01
2012-11-2,46,41,36,34,30,27,76,66,53,30.03,29.80,0,0,0,0.00
2012-11-3,44,41,38,35,32,30,79,70,60,30.14,30.03,0,0,0,7.89
2012-11-4,45,39,32,34,31,27,86,74,59,30.13,30.06,0,0,0,3.95
2012-11-5,37,33,31,31,29,27,88,86,80,30.14,30.06,0,0,0,3.10
2012-11-6,47,37,27,32,29,23,87,73,54,30.08,29.91,0,0,0,0.00
2012-11-7,51,41,33,35,30,27,83,68,50,30.06,29.88,0,0,0,0.00
2012-11-8,47,37,28,35,30,24,91,76,59,30.19,30.06,0,0,0,2.37
2012-11-9,55,45,36,41,35,30,79,69,54,30.24,30.11,0,0,0,0.02
2012-11-10,70,57,48,45,39,35,64,52,37,30.19,30.11,0,0,0,0.02
2012-11-11,68,59,52,40,37,35,55,44,33,30.29,30.11,0,0,0,0.00
2012-11-12,61,50,31,53,42,28,91,76,39,30.36,30.01,0,0,0,0.18
2012-11-13,39,32,28,29,26,22,90,78,61,30.47,30.35,0,0,0,0.02
2012-11-14,39,32,26,29,24,-100,84,76,64,30.49,30.32,0,0,0,1.94
2012-11-15,45,35,26,32,27,22,89,76,59,30.32,30.26,0,0,0,1.80
2012-11-16,47,37,29,37,31,26,93,79,62,30.44,30.29,114,75,114,5.26
2012-11-17,54,43,33,34,30,28,85,64,41,30.53,30.42,114,114,114,0.00
2012-11-18,56,46,36,31,27,24,68,49,31,30.44,30.35,114,114,114,0.00
2012-11-19,56,46,36,38,32,22,67,56,45,30.35,30.16,114,114,114,0.00
2012-11-20,55,48,42,40,36,31,71,63,53,30.16,30.06,114,114,114,0.26
2012-11-21,59,50,42,41,38,34,76,62,48,30.24,30.11,114,114,114,0.12
2012-11-22,61,52,44,41,38,34,72,58,47,30.21,30.00,114,114,114,0.12
2012-11-23,54,44,30,46,33,19,89,66,56,30.13,29.90,114,114,114,0.02
2012-11-24,33,30,29,25,21,20,76,71,64,30.14,30.06,114,114,114,0.02
2012-11-25,43,33,26,26,23,18,75,66,51,30.08,29.87,114,114,114,0.00
2012-11-26,48,40,32,31,27,25,78,63,46,30.16,29.98,114,114,114,0.00
2012-11-27,39,34,27,31,28,20,92,78,67,30.29,30.16,114,114,114,0.00
2012-11-28,40,30,23,27,22,18,84,72,54,30.37,30.26,114,114,114,0.00
2012-11-29,46,36,28,29,24,21,78,64,45,30.37,30.21,114,114,114,0.04
2012-11-30,45,43,38,32,29,-6,64,59,11,30.24,30.14,114,114,114,4.45
2012-12-1,60,53,45,46,29,-6,74,47,11,30.26,30.14,114,114,114,2.94
2012-12-2,56,55,53,55,43,18,95,68,22,30.24,30.03,114,114,114,3.99
2012-12-3,62,58,56,58,55,54,96,92,83,30.16,30.09,114,114,114,1.98
2012-12-4,60,55,42,57,50,39,93,86,79,30.16,30.00,114,114,114,0.18
2012-12-5,41,37,29,39,33,24,95,85,69,30.31,30.16,114,114,114,0.14
2012-12-6,47,36,27,40,27,-100,87,75,62,30.27,29.97,114,114,114,1.16
2012-12-7,51,49,45,50,48,42,96,94,88,29.97,29.83,114,114,114,1.16
2012-12-8,53,52,50,52,51,49,96,96,95,30.01,29.82,114,114,114,2.12
2012-12-9,53,48,44,52,46,42,96,93,91,30.03,29.67,114,114,114,3.87
2012-12-10,44,40,32,42,38,30,94,92,90,29.85,29.62,114,98,114,3.87
2012-12-11,35,32,27,31,29,24,93,89,83,30.19,29.85,0,0,0,0.77
2012-12-12,38,32,25,29,26,22,89,77,63,30.37,30.18,0,0,0,0.55
2012-12-13,43,38,38,29,26,25,63,62,57,30.37,30.24,0,0,0,0.00
2012-12-14,38,34,33,27,27,25,78,74,60,30.24,30.24,0,0,0,0.00
2012-12-15,44,42,33,31,29,27,78,61,57,30.24,29.80,0,0,0,0.00
2012-12-16,59,53,44,54,44,31,86,72,59,29.82,29.67,0,0,0,0.00
2012-12-17,59,54,42,53,50,40,95,85,81,29.75,29.53,0,0,0,0.00
2012-12-18,43,39,36,42,36,33,95,90,83,29.80,29.54,0,0,0,0.00
2012-12-19,41,40,38,37,37,34,89,88,84,29.93,29.72,0,0,0,0.00
2012-12-20,40,40,40,37,37,37,89,89,89,29.93,29.93,0,0,0,0.00
2012-12-21,40,33,27,37,30,24,91,89,86,29.93,29.48,0,0,0,0.00
2012-12-22,29,27,25,26,23,20,87,85,81,30.14,29.90,0,0,0,0.00
2012-12-23,41,31,24,32,25,19,87,78,69,30.03,29.90,0,0,0,0.00
2012-12-24,35,32,28,33,29,24,95,89,82,29.95,29.72,0,0,0,0.02
2012-12-25,33,32,31,32,29,27,95,89,80,30.14,29.93,0,0,0,0.02
2012-12-26,32,32,31,29,28,27,92,84,81,30.05,29.75,0,0,0,0.00
2012-12-31,33,31,23,30,27,20,91,86,77,30.16,30.00,0,0,0,1.41
2013-1-1,32,28,20,30,25,15,94,87,77,30.09,29.98,0,0,0,1.41